sensor_id;sensor_type;location;lat;lon;timestamp;pressure;altitude;pressure_sealevel;temperature;humidity
56713;BME280;42589;45.536;9.032;2023-04-08T00:02:00;99670.50;;;16.88;42.54
56713;BME280;42589;45.536;9.032;2023-04-08T00:05:01;99683.91;;;16.88;41.82
56713;BME280;42589;45.536;9.032;2023-04-08T00:08:02;99662.66;;;16.65;42.03
56713;BME280;42589;45.536;9.032;2023-04-08T00:11:04;99683.97;;;16.95;41.78
56713;BME280;42589;45.536;9.032;2023-04-08T00:14:04;99666.78;;;16.89;42.06
56713;BME280;42589;45.536;9.032;2023-04-08T00:17:05;99666.91;;;16.53;41.42
56713;BME280;42589;45.536;9.032;2023-04-08T00:20:06;99678.56;;;16.67;42.34
56713;BME280;42589;45.536;9.032;2023-04-08T00:23:07;99667.25;;;16.71;41.76
56713;BME280;42589;45.536;9.032;2023-04-08T00:26:08;99688.03;;;16.84;41.47
56713;BME280;42589;45.536;9.032;2023-04-08T00:29:10;99670.50;;;16.67;42.22
56713;BME280;42589;45.536;9.032;2023-04-08T00:32:11;99676.56;;;16.47;42.08
56713;BME280;42589;45.536;9.032;2023-04-08T00:35:12;99679.94;;;16.56;42.01
56713;BME280;42589;45.536;9.032;2023-04-08T00:38:13;99676.00;;;16.31;42.59
56713;BME280;42589;45.536;9.032;2023-04-08T00:41:14;99660.56;;;16.11;43.32
56713;BME280;42589;45.536;9.032;2023-04-08T00:44:15;99674.72;;;16.27;43.47
56713;BME280;42589;45.536;9.032;2023-04-08T00:47:16;99653.88;;;15.86;43.38
56713;BME280;42589;45.536;9.032;2023-04-08T00:50:17;99661.06;;;16.21;42.59
56713;BME280;42589;45.536;9.032;2023-04-08T00:53:19;99662.00;;;16.14;42.49
56713;BME280;42589;45.536;9.032;2023-04-08T00:56:20;99660.22;;;15.99;43.14
56713;BME280;42589;45.536;9.032;2023-04-08T00:59:22;99668.06;;;16.01;42.70
56713;BME280;42589;45.536;9.032;2023-04-08T01:05:35;99677.91;;;15.94;43.15
56713;BME280;42589;45.536;9.032;2023-04-08T01:08:40;99659.09;;;15.72;43.46
56713;BME280;42589;45.536;9.032;2023-04-08T01:11:43;99682.28;;;15.80;43.08
56713;BME280;42589;45.536;9.032;2023-04-08T01:14:45;99660.13;;;15.71;43.08
56713;BME280;42589;45.536;9.032;2023-04-08T01:17:50;99672.53;;;15.94;41.95
56713;BME280;42589;45.536;9.032;2023-04-08T01:20:52;99677.91;;;16.37;41.81
56713;BME280;42589;45.536;9.032;2023-04-08T01:24:00;99679.06;;;16.06;41.89
56713;BME280;42589;45.536;9.032;2023-04-08T01:27:07;99683.44;;;16.14;41.38
56713;BME280;42589;45.536;9.032;2023-04-08T01:30:11;99673.53;;;15.71;42.02
56713;BME280;42589;45.536;9.032;2023-04-08T01:33:14;99660.72;;;15.67;42.47
56713;BME280;42589;45.536;9.032;2023-04-08T01:36:16;99681.19;;;15.60;42.67
56713;BME280;42589;45.536;9.032;2023-04-08T01:39:18;99661.91;;;15.35;42.61
56713;BME280;42589;45.536;9.032;2023-04-08T01:42:22;99657.34;;;15.65;42.79
56713;BME280;42589;45.536;9.032;2023-04-08T01:45:25;99663.88;;;15.26;42.65
56713;BME280;42589;45.536;9.032;2023-04-08T01:48:27;99667.47;;;15.48;42.12
56713;BME280;42589;45.536;9.032;2023-04-08T01:51:29;99667.78;;;15.74;42.36
56713;BME280;42589;45.536;9.032;2023-04-08T01:54:31;99662.28;;;15.46;42.60
56713;BME280;42589;45.536;9.032;2023-04-08T01:57:34;99660.50;;;15.68;41.95
56713;BME280;42589;45.536;9.032;2023-04-08T02:00:37;99658.91;;;15.59;42.09
56713;BME280;42589;45.536;9.032;2023-04-08T02:03:41;99628.09;;;15.48;42.11
56713;BME280;42589;45.536;9.032;2023-04-08T02:06:43;99659.25;;;14.75;43.73
56713;BME280;42589;45.536;9.032;2023-04-08T02:09:44;99663.25;;;14.94;43.69
56713;BME280;42589;45.536;9.032;2023-04-08T02:12:45;99659.28;;;15.20;42.77
56713;BME280;42589;45.536;9.032;2023-04-08T02:15:51;99676.88;;;15.44;42.72
56713;BME280;42589;45.536;9.032;2023-04-08T02:19:01;99670.88;;;15.27;43.23
56713;BME280;42589;45.536;9.032;2023-04-08T02:22:11;99666.25;;;14.76;44.05
56713;BME280;42589;45.536;9.032;2023-04-08T02:25:21;99674.38;;;14.45;44.18
56713;BME280;42589;45.536;9.032;2023-04-08T02:28:24;99658.59;;;14.73;43.92
56713;BME280;42589;45.536;9.032;2023-04-08T02:31:25;99664.69;;;14.44;44.49
56713;BME280;42589;45.536;9.032;2023-04-08T02:34:26;99670.78;;;14.76;43.37
56713;BME280;42589;45.536;9.032;2023-04-08T02:37:27;99678.94;;;14.97;43.10
56713;BME280;42589;45.536;9.032;2023-04-08T02:40:29;99664.81;;;15.03;42.49
56713;BME280;42589;45.536;9.032;2023-04-08T02:43:30;99665.81;;;15.02;42.58
56713;BME280;42589;45.536;9.032;2023-04-08T02:46:31;99651.22;;;15.05;42.42
56713;BME280;42589;45.536;9.032;2023-04-08T02:49:33;99668.31;;;15.04;43.02
56713;BME280;42589;45.536;9.032;2023-04-08T02:52:33;99673.09;;;14.94;42.49
56713;BME280;42589;45.536;9.032;2023-04-08T02:55:35;99674.84;;;14.72;42.97
56713;BME280;42589;45.536;9.032;2023-04-08T02:58:37;99675.47;;;14.74;42.47
56713;BME280;42589;45.536;9.032;2023-04-08T03:01:37;99675.31;;;14.90;42.51
56713;BME280;42589;45.536;9.032;2023-04-08T03:04:38;99679.63;;;14.76;42.44
56713;BME280;42589;45.536;9.032;2023-04-08T03:07:39;99680.28;;;14.40;43.42
56713;BME280;42589;45.536;9.032;2023-04-08T03:10:40;99667.13;;;14.54;42.74
56713;BME280;42589;45.536;9.032;2023-04-08T03:13:43;99691.72;;;14.49;43.21
56713;BME280;42589;45.536;9.032;2023-04-08T03:16:43;99679.56;;;14.47;43.03
56713;BME280;42589;45.536;9.032;2023-04-08T03:19:44;99669.41;;;14.19;44.11
56713;BME280;42589;45.536;9.032;2023-04-08T03:22:45;99679.91;;;14.21;44.58
56713;BME280;42589;45.536;9.032;2023-04-08T03:25:50;99676.22;;;14.45;43.35
56713;BME280;42589;45.536;9.032;2023-04-08T03:28:51;99676.28;;;14.36;43.65
56713;BME280;42589;45.536;9.032;2023-04-08T03:31:52;99667.53;;;14.43;43.78
56713;BME280;42589;45.536;9.032;2023-04-08T03:34:52;99665.97;;;14.48;43.03
56713;BME280;42589;45.536;9.032;2023-04-08T03:37:53;99682.84;;;14.49;43.10
56713;BME280;42589;45.536;9.032;2023-04-08T03:40:54;99674.34;;;14.30;43.15
56713;BME280;42589;45.536;9.032;2023-04-08T03:43:56;99678.72;;;14.23;43.62
56713;BME280;42589;45.536;9.032;2023-04-08T03:46:57;99679.50;;;14.32;43.86
56713;BME280;42589;45.536;9.032;2023-04-08T03:49:58;99678.94;;;14.36;44.27
56713;BME280;42589;45.536;9.032;2023-04-08T03:52:59;99679.47;;;13.86;43.63
56713;BME280;42589;45.536;9.032;2023-04-08T03:56:00;99685.59;;;13.94;45.19
56713;BME280;42589;45.536;9.032;2023-04-08T03:59:02;99688.72;;;13.44;45.18
56713;BME280;42589;45.536;9.032;2023-04-08T04:02:03;99670.78;;;13.61;45.27
56713;BME280;42589;45.536;9.032;2023-04-08T04:05:05;99686.16;;;14.13;43.75
56713;BME280;42589;45.536;9.032;2023-04-08T04:08:06;99679.63;;;13.92;44.05
56713;BME280;42589;45.536;9.032;2023-04-08T04:11:08;99683.06;;;13.70;44.42
56713;BME280;42589;45.536;9.032;2023-04-08T04:14:09;99690.22;;;13.78;44.63
56713;BME280;42589;45.536;9.032;2023-04-08T04:17:10;99693.88;;;13.45;44.75
56713;BME280;42589;45.536;9.032;2023-04-08T04:20:12;99694.13;;;13.19;46.56
56713;BME280;42589;45.536;9.032;2023-04-08T04:23:14;99679.00;;;12.87;47.01
56713;BME280;42589;45.536;9.032;2023-04-08T04:26:15;99690.31;;;13.61;45.47
56713;BME280;42589;45.536;9.032;2023-04-08T04:29:15;99671.56;;;13.69;44.36
56713;BME280;42589;45.536;9.032;2023-04-08T04:32:20;99668.19;;;13.76;44.26
56713;BME280;42589;45.536;9.032;2023-04-08T04:35:21;99680.84;;;13.82;44.70
56713;BME280;42589;45.536;9.032;2023-04-08T04:38:22;99687.31;;;13.87;43.71
56713;BME280;42589;45.536;9.032;2023-04-08T04:41:23;99688.56;;;13.77;44.11
56713;BME280;42589;45.536;9.032;2023-04-08T04:44:23;99677.81;;;13.54;44.70
56713;BME280;42589;45.536;9.032;2023-04-08T04:47:24;99689.56;;;13.76;45.02
56713;BME280;42589;45.536;9.032;2023-04-08T04:50:25;99697.00;;;13.88;44.59
56713;BME280;42589;45.536;9.032;2023-04-08T04:53:26;99680.69;;;13.83;44.23
56713;BME280;42589;45.536;9.032;2023-04-08T04:56:27;99690.78;;;13.65;44.99
56713;BME280;42589;45.536;9.032;2023-04-08T04:59:27;99691.63;;;13.97;43.65
56713;BME280;42589;45.536;9.032;2023-04-08T05:02:28;99673.22;;;13.39;45.24
56713;BME280;42589;45.536;9.032;2023-04-08T05:05:28;99692.53;;;13.50;44.87
56713;BME280;42589;45.536;9.032;2023-04-08T05:08:32;99697.00;;;13.88;43.85
56713;BME280;42589;45.536;9.032;2023-04-08T05:11:33;99688.84;;;13.51;44.25
56713;BME280;42589;45.536;9.032;2023-04-08T05:14:34;99661.63;;;13.55;43.67
56713;BME280;42589;45.536;9.032;2023-04-08T05:17:34;99684.06;;;13.77;44.44
56713;BME280;42589;45.536;9.032;2023-04-08T05:20:35;99672.22;;;13.72;45.06
56713;BME280;42589;45.536;9.032;2023-04-08T05:23:36;99681.50;;;13.84;43.64
56713;BME280;42589;45.536;9.032;2023-04-08T05:26:36;99691.66;;;13.88;43.20
56713;BME280;42589;45.536;9.032;2023-04-08T05:29:37;99680.09;;;13.96;42.81
56713;BME280;42589;45.536;9.032;2023-04-08T05:32:38;99678.91;;;13.99;42.56
56713;BME280;42589;45.536;9.032;2023-04-08T05:35:38;99700.66;;;14.19;42.53
56713;BME280;42589;45.536;9.032;2023-04-08T05:38:39;99694.34;;;14.34;42.83
56713;BME280;42589;45.536;9.032;2023-04-08T05:41:48;99692.09;;;14.23;42.26
56713;BME280;42589;45.536;9.032;2023-04-08T05:44:51;99660.38;;;13.97;41.82
56713;BME280;42589;45.536;9.032;2023-04-08T05:47:55;99683.69;;;14.11;41.95
56713;BME280;42589;45.536;9.032;2023-04-08T05:50:55;99697.19;;;14.10;42.06
56713;BME280;42589;45.536;9.032;2023-04-08T05:53:56;99710.50;;;14.64;40.93
56713;BME280;42589;45.536;9.032;2023-04-08T05:56:58;99717.00;;;14.70;41.02
56713;BME280;42589;45.536;9.032;2023-04-08T05:59:58;99711.31;;;14.88;40.52
56713;BME280;42589;45.536;9.032;2023-04-08T06:02:59;99719.16;;;14.89;40.82
56713;BME280;42589;45.536;9.032;2023-04-08T06:06:00;99712.00;;;15.19;40.17
56713;BME280;42589;45.536;9.032;2023-04-08T06:09:01;99719.75;;;15.29;39.79
56713;BME280;42589;45.536;9.032;2023-04-08T06:12:02;99725.34;;;15.34;39.83
56713;BME280;42589;45.536;9.032;2023-04-08T06:15:04;99726.09;;;15.43;40.26
56713;BME280;42589;45.536;9.032;2023-04-08T06:18:05;99711.03;;;15.56;39.42
56713;BME280;42589;45.536;9.032;2023-04-08T06:21:06;99705.66;;;15.56;39.67
56713;BME280;42589;45.536;9.032;2023-04-08T06:24:07;99724.25;;;15.14;41.49
56713;BME280;42589;45.536;9.032;2023-04-08T06:27:08;99717.03;;;14.84;41.92
56713;BME280;42589;45.536;9.032;2023-04-08T06:30:08;99706.63;;;15.34;40.61
56713;BME280;42589;45.536;9.032;2023-04-08T06:33:09;99726.38;;;15.18;40.80
56713;BME280;42589;45.536;9.032;2023-04-08T06:36:09;99717.88;;;15.74;39.64
56713;BME280;42589;45.536;9.032;2023-04-08T06:39:12;99730.34;;;16.18;39.55
56713;BME280;42589;45.536;9.032;2023-04-08T06:42:14;99728.41;;;16.33;39.00
56713;BME280;42589;45.536;9.032;2023-04-08T06:45:14;99719.22;;;16.64;38.28
56713;BME280;42589;45.536;9.032;2023-04-08T06:48:15;99713.09;;;16.98;38.21
56713;BME280;42589;45.536;9.032;2023-04-08T06:51:16;99708.97;;;16.74;38.08
56713;BME280;42589;45.536;9.032;2023-04-08T06:54:17;99734.59;;;16.98;37.27
56713;BME280;42589;45.536;9.032;2023-04-08T06:57:18;99707.69;;;17.20;36.64
56713;BME280;42589;45.536;9.032;2023-04-08T07:00:19;99738.59;;;17.44;36.70
56713;BME280;42589;45.536;9.032;2023-04-08T07:03:20;99717.44;;;17.34;36.63
56713;BME280;42589;45.536;9.032;2023-04-08T07:06:21;99710.78;;;17.64;36.45
56713;BME280;42589;45.536;9.032;2023-04-08T07:09:22;99735.91;;;17.85;36.59
56713;BME280;42589;45.536;9.032;2023-04-08T07:12:23;99732.03;;;18.01;36.27
56713;BME280;42589;45.536;9.032;2023-04-08T07:15:25;99741.25;;;18.46;35.73
56713;BME280;42589;45.536;9.032;2023-04-08T07:18:26;99736.28;;;18.50;35.16
56713;BME280;42589;45.536;9.032;2023-04-08T07:21:26;99736.06;;;18.38;35.50
56713;BME280;42589;45.536;9.032;2023-04-08T07:24:26;99737.38;;;18.75;35.62
56713;BME280;42589;45.536;9.032;2023-04-08T07:27:27;99727.66;;;18.74;36.10
56713;BME280;42589;45.536;9.032;2023-04-08T07:30:28;99720.53;;;18.27;37.05
56713;BME280;42589;45.536;9.032;2023-04-08T07:33:29;99744.81;;;18.87;36.60
56713;BME280;42589;45.536;9.032;2023-04-08T07:36:30;99714.56;;;19.05;36.10
56713;BME280;42589;45.536;9.032;2023-04-08T07:39:30;99733.44;;;18.78;35.91
56713;BME280;42589;45.536;9.032;2023-04-08T07:42:31;99720.38;;;18.95;35.62
56713;BME280;42589;45.536;9.032;2023-04-08T07:45:31;99725.13;;;19.13;35.45
56713;BME280;42589;45.536;9.032;2023-04-08T07:48:33;99721.81;;;19.11;36.32
56713;BME280;42589;45.536;9.032;2023-04-08T07:51:33;99731.75;;;18.84;36.01
56713;BME280;42589;45.536;9.032;2023-04-08T07:54:35;99739.63;;;17.77;36.74
56713;BME280;42589;45.536;9.032;2023-04-08T07:57:35;99719.63;;;17.93;37.65
56713;BME280;42589;45.536;9.032;2023-04-08T08:00:36;99733.84;;;18.88;36.40
56713;BME280;42589;45.536;9.032;2023-04-08T08:03:38;99722.53;;;19.64;35.11
56713;BME280;42589;45.536;9.032;2023-04-08T08:06:39;99740.53;;;19.77;34.69
56713;BME280;42589;45.536;9.032;2023-04-08T08:09:40;99733.22;;;19.84;35.26
56713;BME280;42589;45.536;9.032;2023-04-08T08:12:41;99740.94;;;19.74;35.20
56713;BME280;42589;45.536;9.032;2023-04-08T08:15:42;99748.13;;;19.93;35.41
56713;BME280;42589;45.536;9.032;2023-04-08T08:18:43;99736.31;;;20.26;35.32
56713;BME280;42589;45.536;9.032;2023-04-08T08:21:43;99743.97;;;20.29;34.70
56713;BME280;42589;45.536;9.032;2023-04-08T08:24:44;99748.72;;;20.02;35.72
56713;BME280;42589;45.536;9.032;2023-04-08T08:27:45;99749.34;;;19.98;35.57
56713;BME280;42589;45.536;9.032;2023-04-08T08:30:46;99719.38;;;19.74;36.01
56713;BME280;42589;45.536;9.032;2023-04-08T08:33:48;99747.22;;;20.45;35.29
56713;BME280;42589;45.536;9.032;2023-04-08T08:36:49;99739.44;;;20.30;35.94
56713;BME280;42589;45.536;9.032;2023-04-08T08:39:52;99768.31;;;20.61;34.74
56713;BME280;42589;45.536;9.032;2023-04-08T08:42:53;99749.09;;;20.44;35.59
56713;BME280;42589;45.536;9.032;2023-04-08T08:45:54;99765.09;;;20.77;34.24
56713;BME280;42589;45.536;9.032;2023-04-08T08:48:55;99776.22;;;20.88;34.49
56713;BME280;42589;45.536;9.032;2023-04-08T08:51:57;99763.88;;;19.97;36.21
56713;BME280;42589;45.536;9.032;2023-04-08T08:54:58;99779.03;;;20.43;35.08
56713;BME280;42589;45.536;9.032;2023-04-08T08:58:00;99748.09;;;20.95;33.90
56713;BME280;42589;45.536;9.032;2023-04-08T09:01:00;99773.94;;;21.35;34.39
56713;BME280;42589;45.536;9.032;2023-04-08T09:07:11;99769.97;;;21.12;33.81
56713;BME280;42589;45.536;9.032;2023-04-08T09:10:13;99780.69;;;21.50;33.64
56713;BME280;42589;45.536;9.032;2023-04-08T09:13:14;99771.91;;;20.10;34.76
56713;BME280;42589;45.536;9.032;2023-04-08T09:16:16;99759.53;;;19.96;35.86
56713;BME280;42589;45.536;9.032;2023-04-08T09:19:18;99769.56;;;21.33;34.40
56713;BME280;42589;45.536;9.032;2023-04-08T09:22:20;99753.03;;;21.67;33.20
56713;BME280;42589;45.536;9.032;2023-04-08T09:25:31;99760.78;;;21.63;34.19
56713;BME280;42589;45.536;9.032;2023-04-08T09:28:33;99755.56;;;21.00;33.86
56713;BME280;42589;45.536;9.032;2023-04-08T09:31:35;99756.09;;;21.70;33.30
56713;BME280;42589;45.536;9.032;2023-04-08T09:34:40;99737.63;;;21.49;32.34
56713;BME280;42589;45.536;9.032;2023-04-08T09:37:46;99714.78;;;21.63;33.57
56713;BME280;42589;45.536;9.032;2023-04-08T09:40:47;99720.03;;;22.07;32.73
56713;BME280;42589;45.536;9.032;2023-04-08T09:43:50;99723.56;;;22.07;32.83
56713;BME280;42589;45.536;9.032;2023-04-08T09:47:17;99721.19;;;22.17;32.14
56713;BME280;42589;45.536;9.032;2023-04-08T09:50:23;99730.66;;;21.41;32.82
56713;BME280;42589;45.536;9.032;2023-04-08T09:53:33;99717.75;;;20.11;33.96
56713;BME280;42589;45.536;9.032;2023-04-08T09:56:46;99722.16;;;21.38;31.94
56713;BME280;42589;45.536;9.032;2023-04-08T10:00:13;99713.34;;;21.79;32.34
56713;BME280;42589;45.536;9.032;2023-04-08T10:03:35;99707.97;;;22.39;30.78
56713;BME280;42589;45.536;9.032;2023-04-08T10:06:40;99706.41;;;22.13;30.65
56713;BME280;42589;45.536;9.032;2023-04-08T10:09:41;99709.44;;;22.35;30.97
56713;BME280;42589;45.536;9.032;2023-04-08T10:12:42;99710.78;;;22.14;30.99
56713;BME280;42589;45.536;9.032;2023-04-08T10:15:43;99729.78;;;22.80;29.86
56713;BME280;42589;45.536;9.032;2023-04-08T10:18:47;99726.94;;;22.63;29.07
56713;BME280;42589;45.536;9.032;2023-04-08T10:21:50;99712.19;;;22.47;28.64
56713;BME280;42589;45.536;9.032;2023-04-08T10:25:29;99709.75;;;22.45;28.56
56713;BME280;42589;45.536;9.032;2023-04-08T10:28:31;99733.09;;;22.70;28.52
56713;BME280;42589;45.536;9.032;2023-04-08T10:31:39;99727.97;;;22.50;29.25
56713;BME280;42589;45.536;9.032;2023-04-08T10:34:51;99692.31;;;22.11;29.97
56713;BME280;42589;45.536;9.032;2023-04-08T10:37:54;99709.44;;;22.77;28.65
56713;BME280;42589;45.536;9.032;2023-04-08T10:40:55;99710.13;;;21.70;30.18
56713;BME280;42589;45.536;9.032;2023-04-08T10:43:56;99696.81;;;22.83;29.19
56713;BME280;42589;45.536;9.032;2023-04-08T10:46:57;99701.63;;;22.69;28.51
56713;BME280;42589;45.536;9.032;2023-04-08T10:49:57;99702.09;;;22.89;28.87
56713;BME280;42589;45.536;9.032;2023-04-08T10:52:58;99679.88;;;22.99;29.04
56713;BME280;42589;45.536;9.032;2023-04-08T10:56:04;99699.72;;;23.52;28.04
56713;BME280;42589;45.536;9.032;2023-04-08T10:59:08;99687.72;;;23.48;26.44
56713;BME280;42589;45.536;9.032;2023-04-08T11:02:12;99665.69;;;23.44;28.83
56713;BME280;42589;45.536;9.032;2023-04-08T11:05:13;99672.97;;;22.38;29.52
56713;BME280;42589;45.536;9.032;2023-04-08T11:08:14;99702.72;;;22.91;28.87
56713;BME280;42589;45.536;9.032;2023-04-08T11:11:15;99687.31;;;23.56;27.81
56713;BME280;42589;45.536;9.032;2023-04-08T11:14:16;99688.72;;;24.11;28.39
56713;BME280;42589;45.536;9.032;2023-04-08T11:17:20;99688.81;;;23.75;28.58
56713;BME280;42589;45.536;9.032;2023-04-08T11:20:21;99688.59;;;23.77;28.41
56713;BME280;42589;45.536;9.032;2023-04-08T11:23:26;99684.28;;;24.38;27.06
56713;BME280;42589;45.536;9.032;2023-04-08T11:26:26;99660.88;;;22.87;28.11
56713;BME280;42589;45.536;9.032;2023-04-08T11:29:28;99659.63;;;23.54;27.83
56713;BME280;42589;45.536;9.032;2023-04-08T11:32:34;99674.09;;;23.71;26.44
56713;BME280;42589;45.536;9.032;2023-04-08T11:35:39;99677.25;;;24.08;26.78
56713;BME280;42589;45.536;9.032;2023-04-08T11:38:40;99665.75;;;24.35;25.41
56713;BME280;42589;45.536;9.032;2023-04-08T11:41:41;99659.03;;;24.54;25.70
56713;BME280;42589;45.536;9.032;2023-04-08T11:44:41;99650.72;;;24.44;25.41
56713;BME280;42589;45.536;9.032;2023-04-08T11:47:43;99637.97;;;24.45;25.35
56713;BME280;42589;45.536;9.032;2023-04-08T11:50:44;99660.66;;;24.22;25.62
56713;BME280;42589;45.536;9.032;2023-04-08T11:53:45;99651.91;;;24.03;25.73
56713;BME280;42589;45.536;9.032;2023-04-08T11:56:48;99650.50;;;24.46;25.09
56713;BME280;42589;45.536;9.032;2023-04-08T11:59:49;99650.81;;;24.49;24.61
56713;BME280;42589;45.536;9.032;2023-04-08T12:02:50;99647.31;;;24.20;25.54
56713;BME280;42589;45.536;9.032;2023-04-08T12:05:52;99647.81;;;24.34;25.51
56713;BME280;42589;45.536;9.032;2023-04-08T12:08:54;99631.91;;;23.92;25.75
56713;BME280;42589;45.536;9.032;2023-04-08T12:12:03;99623.16;;;23.90;26.64
56713;BME280;42589;45.536;9.032;2023-04-08T12:15:06;99623.56;;;23.42;27.23
56713;BME280;42589;45.536;9.032;2023-04-08T12:18:07;99632.22;;;23.15;27.60
56713;BME280;42589;45.536;9.032;2023-04-08T12:21:17;99633.78;;;23.63;26.75
56713;BME280;42589;45.536;9.032;2023-04-08T12:24:18;99620.69;;;24.51;26.88
56713;BME280;42589;45.536;9.032;2023-04-08T12:27:19;99630.19;;;24.70;25.80
56713;BME280;42589;45.536;9.032;2023-04-08T12:30:20;99612.63;;;24.56;26.22
56713;BME280;42589;45.536;9.032;2023-04-08T12:33:20;99610.19;;;23.92;25.19
56713;BME280;42589;45.536;9.032;2023-04-08T12:36:21;99623.69;;;24.38;24.86
56713;BME280;42589;45.536;9.032;2023-04-08T12:39:22;99612.22;;;24.86;24.76
56713;BME280;42589;45.536;9.032;2023-04-08T12:42:23;99624.72;;;24.48;25.47
56713;BME280;42589;45.536;9.032;2023-04-08T12:45:23;99596.31;;;24.39;25.32
56713;BME280;42589;45.536;9.032;2023-04-08T12:48:24;99615.97;;;25.19;24.21
56713;BME280;42589;45.536;9.032;2023-04-08T12:51:27;99604.69;;;25.32;24.28
56713;BME280;42589;45.536;9.032;2023-04-08T12:54:28;99607.38;;;24.88;25.37
56713;BME280;42589;45.536;9.032;2023-04-08T12:57:30;99607.78;;;24.80;24.23
56713;BME280;42589;45.536;9.032;2023-04-08T13:00:31;99583.78;;;24.72;25.13
56713;BME280;42589;45.536;9.032;2023-04-08T13:03:32;99601.09;;;25.27;25.12
56713;BME280;42589;45.536;9.032;2023-04-08T13:06:34;99595.31;;;25.45;24.72
56713;BME280;42589;45.536;9.032;2023-04-08T13:09:35;99587.28;;;25.11;25.15
56713;BME280;42589;45.536;9.032;2023-04-08T13:12:38;99600.66;;;25.13;24.43
56713;BME280;42589;45.536;9.032;2023-04-08T13:15:39;99576.38;;;24.89;25.06
56713;BME280;42589;45.536;9.032;2023-04-08T13:18:40;99597.25;;;25.22;24.23
56713;BME280;42589;45.536;9.032;2023-04-08T13:21:41;99591.03;;;25.27;23.84
56713;BME280;42589;45.536;9.032;2023-04-08T13:24:42;99579.09;;;26.09;23.24
56713;BME280;42589;45.536;9.032;2023-04-08T13:27:43;99575.94;;;25.90;23.31
56713;BME280;42589;45.536;9.032;2023-04-08T13:30:44;99564.03;;;25.69;23.54
56713;BME280;42589;45.536;9.032;2023-04-08T13:33:45;99574.88;;;25.42;23.83
56713;BME280;42589;45.536;9.032;2023-04-08T13:36:46;99569.56;;;24.48;24.42
56713;BME280;42589;45.536;9.032;2023-04-08T13:39:48;99551.63;;;25.30;24.31
56713;BME280;42589;45.536;9.032;2023-04-08T13:42:48;99552.38;;;26.06;23.57
56713;BME280;42589;45.536;9.032;2023-04-08T13:45:50;99576.72;;;26.50;22.94
56713;BME280;42589;45.536;9.032;2023-04-08T13:48:51;99565.84;;;26.55;23.34
56713;BME280;42589;45.536;9.032;2023-04-08T13:51:51;99554.91;;;27.03;22.63
56713;BME280;42589;45.536;9.032;2023-04-08T13:54:53;99560.78;;;26.79;22.96
56713;BME280;42589;45.536;9.032;2023-04-08T13:57:54;99540.81;;;26.63;21.57
56713;BME280;42589;45.536;9.032;2023-04-08T14:00:55;99559.59;;;26.60;22.32
56713;BME280;42589;45.536;9.032;2023-04-08T14:03:56;99552.53;;;26.64;22.61
56713;BME280;42589;45.536;9.032;2023-04-08T14:06:57;99539.66;;;26.49;22.85
56713;BME280;42589;45.536;9.032;2023-04-08T14:09:57;99550.38;;;26.66;22.94
56713;BME280;42589;45.536;9.032;2023-04-08T14:12:58;99542.34;;;27.02;22.73
56713;BME280;42589;45.536;9.032;2023-04-08T14:15:58;99546.09;;;26.80;22.74
56713;BME280;42589;45.536;9.032;2023-04-08T14:19:02;99528.97;;;26.95;21.84
56713;BME280;42589;45.536;9.032;2023-04-08T14:22:03;99523.09;;;26.24;22.48
56713;BME280;42589;45.536;9.032;2023-04-08T14:25:04;99534.06;;;26.71;22.43
56713;BME280;42589;45.536;9.032;2023-04-08T14:28:05;99541.66;;;26.69;22.18
56713;BME280;42589;45.536;9.032;2023-04-08T14:31:06;99530.13;;;26.52;22.68
56713;BME280;42589;45.536;9.032;2023-04-08T14:34:08;99537.19;;;27.00;22.13
56713;BME280;42589;45.536;9.032;2023-04-08T14:37:08;99538.91;;;27.17;22.38
56713;BME280;42589;45.536;9.032;2023-04-08T14:40:10;99519.97;;;26.90;22.18
56713;BME280;42589;45.536;9.032;2023-04-08T14:43:10;99532.56;;;27.06;21.92
56713;BME280;42589;45.536;9.032;2023-04-08T14:46:12;99518.91;;;26.48;22.46
56713;BME280;42589;45.536;9.032;2023-04-08T14:49:13;99528.25;;;27.20;21.36
56713;BME280;42589;45.536;9.032;2023-04-08T14:52:13;99525.59;;;27.46;21.21
56713;BME280;42589;45.536;9.032;2023-04-08T14:55:14;99526.13;;;27.43;21.24
56713;BME280;42589;45.536;9.032;2023-04-08T14:58:15;99531.06;;;27.56;21.63
56713;BME280;42589;45.536;9.032;2023-04-08T15:01:16;99523.75;;;27.87;21.12
56713;BME280;42589;45.536;9.032;2023-04-08T15:04:17;99523.78;;;27.82;20.87
56713;BME280;42589;45.536;9.032;2023-04-08T15:07:17;99529.44;;;27.60;21.15
56713;BME280;42589;45.536;9.032;2023-04-08T15:10:19;99530.28;;;28.22;21.03
56713;BME280;42589;45.536;9.032;2023-04-08T15:13:26;99519.31;;;28.68;20.04
56713;BME280;42589;45.536;9.032;2023-04-08T15:16:27;99535.41;;;28.69;20.24
56713;BME280;42589;45.536;9.032;2023-04-08T15:19:27;99532.22;;;28.27;20.46
56713;BME280;42589;45.536;9.032;2023-04-08T15:22:28;99532.44;;;27.59;20.83
56713;BME280;42589;45.536;9.032;2023-04-08T15:25:29;99523.97;;;26.34;21.36
56713;BME280;42589;45.536;9.032;2023-04-08T15:28:30;99538.19;;;26.89;21.60
56713;BME280;42589;45.536;9.032;2023-04-08T15:31:31;99544.13;;;27.34;20.86
56713;BME280;42589;45.536;9.032;2023-04-08T15:34:33;99525.66;;;27.97;20.84
56713;BME280;42589;45.536;9.032;2023-04-08T15:37:34;99519.91;;;27.68;20.85
56713;BME280;42589;45.536;9.032;2023-04-08T15:40:34;99523.50;;;27.99;21.00
56713;BME280;42589;45.536;9.032;2023-04-08T15:43:35;99529.50;;;28.16;20.76
56713;BME280;42589;45.536;9.032;2023-04-08T15:46:36;99538.75;;;28.61;20.05
56713;BME280;42589;45.536;9.032;2023-04-08T15:49:37;99531.94;;;28.43;20.58
56713;BME280;42589;45.536;9.032;2023-04-08T15:52:38;99531.91;;;27.72;20.59
56713;BME280;42589;45.536;9.032;2023-04-08T15:55:40;99528.53;;;27.24;20.90
56713;BME280;42589;45.536;9.032;2023-04-08T15:58:41;99540.16;;;28.03;20.37
56713;BME280;42589;45.536;9.032;2023-04-08T16:01:42;99538.38;;;27.25;21.35
56713;BME280;42589;45.536;9.032;2023-04-08T16:04:43;99532.66;;;27.21;21.10
56713;BME280;42589;45.536;9.032;2023-04-08T16:07:44;99538.66;;;27.18;21.40
56713;BME280;42589;45.536;9.032;2023-04-08T16:10:46;99541.91;;;27.15;21.62